sensor_id;sensor_type;location;lat;lon;timestamp;temperature;humidity
20200;DHT22;36284;37.236;-121.934;2023-06-22T00:01:19;24.30;99.90
20200;DHT22;36284;37.236;-121.934;2023-06-22T00:03:48;24.40;99.90
20200;DHT22;36284;37.236;-121.934;2023-06-22T00:06:15;23.90;99.90
20200;DHT22;36284;37.236;-121.934;2023-06-22T00:08:42;24.40;99.90
20200;DHT22;36284;37.236;-121.934;2023-06-22T00:11:09;24.20;99.90
20200;DHT22;36284;37.236;-121.934;2023-06-22T00:13:36;24.40;99.90
20200;DHT22;36284;37.236;-121.934;2023-06-22T00:16:03;24.10;99.90
20200;DHT22;36284;37.236;-121.934;2023-06-22T00:18:30;24.10;99.90
20200;DHT22;36284;37.236;-121.934;2023-06-22T00:20:58;23.70;99.90
20200;DHT22;36284;37.236;-121.934;2023-06-22T00:23:26;24.10;99.90
20200;DHT22;36284;37.236;-121.934;2023-06-22T00:25:53;23.50;99.90
20200;DHT22;36284;37.236;-121.934;2023-06-22T00:28:20;23.40;99.90
20200;DHT22;36284;37.236;-121.934;2023-06-22T00:30:48;22.80;99.90
20200;DHT22;36284;37.236;-121.934;2023-06-22T00:33:15;23.50;99.90
20200;DHT22;36284;37.236;-121.934;2023-06-22T00:35:42;23.10;99.90
20200;DHT22;36284;37.236;-121.934;2023-06-22T00:38:09;23.10;99.90
20200;DHT22;36284;37.236;-121.934;2023-06-22T00:40:37;22.60;99.90
20200;DHT22;36284;37.236;-121.934;2023-06-22T00:43:04;23.10;99.90
20200;DHT22;36284;37.236;-121.934;2023-06-22T00:45:34;23.00;99.90
20200;DHT22;36284;37.236;-121.934;2023-06-22T00:48:01;23.10;99.90
20200;DHT22;36284;37.236;-121.934;2023-06-22T00:50:33;23.00;99.90
20200;DHT22;36284;37.236;-121.934;2023-06-22T00:53:07;23.20;99.90
20200;DHT22;36284;37.236;-121.934;2023-06-22T00:55:42;23.10;99.90
20200;DHT22;36284;37.236;-121.934;2023-06-22T00:58:10;22.90;99.90
20200;DHT22;36284;37.236;-121.934;2023-06-22T01:00:38;22.90;99.90
20200;DHT22;36284;37.236;-121.934;2023-06-22T01:03:06;22.50;99.90
20200;DHT22;36284;37.236;-121.934;2023-06-22T01:05:37;22.20;99.90
20200;DHT22;36284;37.236;-121.934;2023-06-22T01:16:10;22.40;99.90
20200;DHT22;36284;37.236;-121.934;2023-06-22T01:18:41;22.20;99.90
20200;DHT22;36284;37.236;-121.934;2023-06-22T01:21:11;22.00;99.90
20200;DHT22;36284;37.236;-121.934;2023-06-22T01:24:07;22.00;99.90
20200;DHT22;36284;37.236;-121.934;2023-06-22T01:26:52;21.80;99.90
20200;DHT22;36284;37.236;-121.934;2023-06-22T01:29:21;21.80;99.90
20200;DHT22;36284;37.236;-121.934;2023-06-22T01:31:50;21.30;99.90
20200;DHT22;36284;37.236;-121.934;2023-06-22T01:34:18;21.30;99.90
20200;DHT22;36284;37.236;-121.934;2023-06-22T01:36:46;21.40;99.90
20200;DHT22;36284;37.236;-121.934;2023-06-22T01:41:41;20.70;99.90
20200;DHT22;36284;37.236;-121.934;2023-06-22T01:44:09;20.40;99.90
20200;DHT22;36284;37.236;-121.934;2023-06-22T01:46:37;20.50;99.90
20200;DHT22;36284;37.236;-121.934;2023-06-22T01:49:06;20.80;99.90
20200;DHT22;36284;37.236;-121.934;2023-06-22T01:51:34;20.80;99.90
20200;DHT22;36284;37.236;-121.934;2023-06-22T01:54:01;20.70;99.90
20200;DHT22;36284;37.236;-121.934;2023-06-22T01:56:29;20.10;99.90
20200;DHT22;36284;37.236;-121.934;2023-06-22T01:59:26;20.30;99.90
20200;DHT22;36284;37.236;-121.934;2023-06-22T02:02:04;20.20;99.90
20200;DHT22;36284;37.236;-121.934;2023-06-22T02:04:46;20.20;99.90
20200;DHT22;36284;37.236;-121.934;2023-06-22T02:07:17;20.20;99.90
20200;DHT22;36284;37.236;-121.934;2023-06-22T02:09:46;19.80;99.90
20200;DHT22;36284;37.236;-121.934;2023-06-22T02:12:22;19.60;99.90
20200;DHT22;36284;37.236;-121.934;2023-06-22T02:14:52;19.80;99.90
20200;DHT22;36284;37.236;-121.934;2023-06-22T02:17:19;19.80;99.90
20200;DHT22;36284;37.236;-121.934;2023-06-22T02:19:46;19.60;99.90
20200;DHT22;36284;37.236;-121.934;2023-06-22T02:22:13;19.60;99.90
20200;DHT22;36284;37.236;-121.934;2023-06-22T02:24:41;19.10;99.90
20200;DHT22;36284;37.236;-121.934;2023-06-22T02:27:07;19.00;99.90
20200;DHT22;36284;37.236;-121.934;2023-06-22T02:29:34;18.90;99.90
20200;DHT22;36284;37.236;-121.934;2023-06-22T02:32:01;19.10;99.90
20200;DHT22;36284;37.236;-121.934;2023-06-22T02:34:28;18.90;99.90
20200;DHT22;36284;37.236;-121.934;2023-06-22T02:36:55;18.70;99.90
20200;DHT22;36284;37.236;-121.934;2023-06-22T02:39:25;18.50;99.90
20200;DHT22;36284;37.236;-121.934;2023-06-22T02:41:53;18.60;99.90
20200;DHT22;36284;37.236;-121.934;2023-06-22T02:44:21;18.30;99.90
20200;DHT22;36284;37.236;-121.934;2023-06-22T02:46:48;18.20;99.90
20200;DHT22;36284;37.236;-121.934;2023-06-22T02:49:15;18.30;99.90
20200;DHT22;36284;37.236;-121.934;2023-06-22T02:51:46;18.20;99.90
20200;DHT22;36284;37.236;-121.934;2023-06-22T02:54:13;18.30;99.90
20200;DHT22;36284;37.236;-121.934;2023-06-22T02:56:40;18.00;99.90
20200;DHT22;36284;37.236;-121.934;2023-06-22T02:59:10;17.90;99.90
20200;DHT22;36284;37.236;-121.934;2023-06-22T03:01:37;17.80;99.90
20200;DHT22;36284;37.236;-121.934;2023-06-22T03:04:07;17.70;99.90
20200;DHT22;36284;37.236;-121.934;2023-06-22T03:06:34;17.50;99.90
20200;DHT22;36284;37.236;-121.934;2023-06-22T03:09:04;17.40;99.90
20200;DHT22;36284;37.236;-121.934;2023-06-22T03:11:32;17.40;99.90
20200;DHT22;36284;37.236;-121.934;2023-06-22T03:14:00;17.30;99.90
20200;DHT22;36284;37.236;-121.934;2023-06-22T03:16:28;17.20;99.90
20200;DHT22;36284;37.236;-121.934;2023-06-22T03:18:55;17.10;99.90
20200;DHT22;36284;37.236;-121.934;2023-06-22T03:21:23;17.00;99.90
20200;DHT22;36284;37.236;-121.934;2023-06-22T03:23:50;16.90;99.90
20200;DHT22;36284;37.236;-121.934;2023-06-22T03:26:18;16.90;99.90
20200;DHT22;36284;37.236;-121.934;2023-06-22T03:28:45;16.70;99.90
20200;DHT22;36284;37.236;-121.934;2023-06-22T03:31:12;16.60;99.90
20200;DHT22;36284;37.236;-121.934;2023-06-22T03:33:39;16.60;99.90
20200;DHT22;36284;37.236;-121.934;2023-06-22T03:36:06;16.40;99.90
20200;DHT22;36284;37.236;-121.934;2023-06-22T03:38:33;16.30;99.90
20200;DHT22;36284;37.236;-121.934;2023-06-22T03:41:00;16.30;99.90
20200;DHT22;36284;37.236;-121.934;2023-06-22T03:43:27;16.20;99.90
20200;DHT22;36284;37.236;-121.934;2023-06-22T03:45:54;16.10;99.90
20200;DHT22;36284;37.236;-121.934;2023-06-22T03:48:21;16.00;99.90
20200;DHT22;36284;37.236;-121.934;2023-06-22T03:50:48;16.00;99.90
20200;DHT22;36284;37.236;-121.934;2023-06-22T03:53:15;15.90;99.90
20200;DHT22;36284;37.236;-121.934;2023-06-22T03:55:49;15.80;99.90
20200;DHT22;36284;37.236;-121.934;2023-06-22T03:58:18;15.80;99.90
20200;DHT22;36284;37.236;-121.934;2023-06-22T04:00:50;15.70;99.90
20200;DHT22;36284;37.236;-121.934;2023-06-22T04:03:18;15.60;99.90
20200;DHT22;36284;37.236;-121.934;2023-06-22T04:05:46;15.70;99.90
20200;DHT22;36284;37.236;-121.934;2023-06-22T04:08:13;15.50;99.90
20200;DHT22;36284;37.236;-121.934;2023-06-22T04:10:41;15.50;99.90
20200;DHT22;36284;37.236;-121.934;2023-06-22T04:13:08;15.50;99.90
20200;DHT22;36284;37.236;-121.934;2023-06-22T04:15:35;15.40;99.90
20200;DHT22;36284;37.236;-121.934;2023-06-22T04:18:02;15.40;99.90
20200;DHT22;36284;37.236;-121.934;2023-06-22T04:20:30;15.40;99.90
20200;DHT22;36284;37.236;-121.934;2023-06-22T04:22:57;15.30;99.90
20200;DHT22;36284;37.236;-121.934;2023-06-22T04:25:24;15.20;99.90
20200;DHT22;36284;37.236;-121.934;2023-06-22T04:27:51;15.20;99.90
20200;DHT22;36284;37.236;-121.934;2023-06-22T04:30:18;15.10;99.90
20200;DHT22;36284;37.236;-121.934;2023-06-22T04:32:45;15.00;99.90
20200;DHT22;36284;37.236;-121.934;2023-06-22T04:35:24;15.00;99.90
20200;DHT22;36284;37.236;-121.934;2023-06-22T04:37:53;15.10;99.90
20200;DHT22;36284;37.236;-121.934;2023-06-22T04:40:23;15.10;99.90
20200;DHT22;36284;37.236;-121.934;2023-06-22T04:42:50;15.00;99.90
20200;DHT22;36284;37.236;-121.934;2023-06-22T04:45:20;14.90;99.90
20200;DHT22;36284;37.236;-121.934;2023-06-22T04:47:47;14.90;99.90
20200;DHT22;36284;37.236;-121.934;2023-06-22T04:50:14;14.90;99.90
20200;DHT22;36284;37.236;-121.934;2023-06-22T04:52:41;14.80;99.90
20200;DHT22;36284;37.236;-121.934;2023-06-22T04:55:08;14.70;99.90
20200;DHT22;36284;37.236;-121.934;2023-06-22T04:57:35;14.70;99.90
20200;DHT22;36284;37.236;-121.934;2023-06-22T05:00:07;14.70;99.90
20200;DHT22;36284;37.236;-121.934;2023-06-22T05:02:45;14.60;99.90
20200;DHT22;36284;37.236;-121.934;2023-06-22T05:05:13;14.50;99.90
20200;DHT22;36284;37.236;-121.934;2023-06-22T05:07:45;14.60;99.90
20200;DHT22;36284;37.236;-121.934;2023-06-22T05:10:15;14.70;99.90
20200;DHT22;36284;37.236;-121.934;2023-06-22T05:12:42;14.70;99.90
20200;DHT22;36284;37.236;-121.934;2023-06-22T05:15:09;14.60;99.90
20200;DHT22;36284;37.236;-121.934;2023-06-22T05:17:37;14.60;99.90
20200;DHT22;36284;37.236;-121.934;2023-06-22T05:20:10;14.50;99.90
20200;DHT22;36284;37.236;-121.934;2023-06-22T05:22:38;14.70;99.90
20200;DHT22;36284;37.236;-121.934;2023-06-22T05:25:09;14.60;99.90
20200;DHT22;36284;37.236;-121.934;2023-06-22T05:27:37;14.60;99.90
20200;DHT22;36284;37.236;-121.934;2023-06-22T05:30:08;14.60;99.90
20200;DHT22;36284;37.236;-121.934;2023-06-22T05:32:36;14.70;99.90
20200;DHT22;36284;37.236;-121.934;2023-06-22T05:35:04;14.70;99.90
20200;DHT22;36284;37.236;-121.934;2023-06-22T05:37:31;14.60;99.90
20200;DHT22;36284;37.236;-121.934;2023-06-22T05:39:58;14.50;99.90
20200;DHT22;36284;37.236;-121.934;2023-06-22T05:42:25;14.50;99.90
20200;DHT22;36284;37.236;-121.934;2023-06-22T05:44:53;14.50;99.90
20200;DHT22;36284;37.236;-121.934;2023-06-22T05:47:20;14.50;99.90
20200;DHT22;36284;37.236;-121.934;2023-06-22T05:49:47;14.50;99.90
20200;DHT22;36284;37.236;-121.934;2023-06-22T05:52:14;14.60;99.90
20200;DHT22;36284;37.236;-121.934;2023-06-22T05:54:40;14.50;99.90
20200;DHT22;36284;37.236;-121.934;2023-06-22T05:57:09;14.40;99.90
20200;DHT22;36284;37.236;-121.934;2023-06-22T05:59:36;14.50;99.90
20200;DHT22;36284;37.236;-121.934;2023-06-22T06:02:03;14.50;99.90
20200;DHT22;36284;37.236;-121.934;2023-06-22T06:04:31;14.50;99.90
20200;DHT22;36284;37.236;-121.934;2023-06-22T06:06:58;14.60;99.90
20200;DHT22;36284;37.236;-121.934;2023-06-22T06:09:25;14.50;99.90
20200;DHT22;36284;37.236;-121.934;2023-06-22T06:11:52;14.50;99.90
20200;DHT22;36284;37.236;-121.934;2023-06-22T06:14:19;14.40;99.90
20200;DHT22;36284;37.236;-121.934;2023-06-22T06:16:46;14.40;99.90
20200;DHT22;36284;37.236;-121.934;2023-06-22T06:19:13;14.40;99.90
20200;DHT22;36284;37.236;-121.934;2023-06-22T06:21:40;14.50;99.90
20200;DHT22;36284;37.236;-121.934;2023-06-22T06:24:07;14.50;99.90
20200;DHT22;36284;37.236;-121.934;2023-06-22T06:26:34;14.40;99.90
20200;DHT22;36284;37.236;-121.934;2023-06-22T06:29:02;14.30;99.90
20200;DHT22;36284;37.236;-121.934;2023-06-22T06:31:29;14.20;99.90
20200;DHT22;36284;37.236;-121.934;2023-06-22T06:33:56;14.20;99.90
20200;DHT22;36284;37.236;-121.934;2023-06-22T06:36:23;14.30;99.90
20200;DHT22;36284;37.236;-121.934;2023-06-22T06:38:50;14.10;99.90
20200;DHT22;36284;37.236;-121.934;2023-06-22T06:41:17;14.20;99.90
20200;DHT22;36284;37.236;-121.934;2023-06-22T06:43:44;14.30;99.90
20200;DHT22;36284;37.236;-121.934;2023-06-22T06:46:11;14.30;99.90
20200;DHT22;36284;37.236;-121.934;2023-06-22T06:48:38;14.50;99.90
20200;DHT22;36284;37.236;-121.934;2023-06-22T06:51:06;14.50;99.90
20200;DHT22;36284;37.236;-121.934;2023-06-22T06:53:37;14.40;99.90
20200;DHT22;36284;37.236;-121.934;2023-06-22T06:56:05;14.40;99.90
20200;DHT22;36284;37.236;-121.934;2023-06-22T06:58:31;14.20;99.90
20200;DHT22;36284;37.236;-121.934;2023-06-22T07:00:59;14.10;99.90
20200;DHT22;36284;37.236;-121.934;2023-06-22T07:03:26;14.20;99.90
20200;DHT22;36284;37.236;-121.934;2023-06-22T07:05:53;14.20;99.90
20200;DHT22;36284;37.236;-121.934;2023-06-22T07:08:20;14.00;99.90
20200;DHT22;36284;37.236;-121.934;2023-06-22T07:10:47;14.00;99.90
20200;DHT22;36284;37.236;-121.934;2023-06-22T07:13:14;14.00;99.90
20200;DHT22;36284;37.236;-121.934;2023-06-22T07:15:41;14.00;99.90
20200;DHT22;36284;37.236;-121.934;2023-06-22T07:18:09;13.90;99.90
20200;DHT22;36284;37.236;-121.934;2023-06-22T07:20:36;13.90;99.90
20200;DHT22;36284;37.236;-121.934;2023-06-22T07:23:03;13.80;99.90
20200;DHT22;36284;37.236;-121.934;2023-06-22T07:25:30;13.80;99.90
20200;DHT22;36284;37.236;-121.934;2023-06-22T07:28:04;14.00;99.90
20200;DHT22;36284;37.236;-121.934;2023-06-22T07:30:32;14.00;99.90
20200;DHT22;36284;37.236;-121.934;2023-06-22T07:33:00;13.90;99.90
20200;DHT22;36284;37.236;-121.934;2023-06-22T07:35:33;14.00;99.90
20200;DHT22;36284;37.236;-121.934;2023-06-22T07:38:00;14.00;99.90
20200;DHT22;36284;37.236;-121.934;2023-06-22T07:40:27;13.90;99.90
20200;DHT22;36284;37.236;-121.934;2023-06-22T07:42:54;14.00;99.90
20200;DHT22;36284;37.236;-121.934;2023-06-22T07:45:21;14.00;99.90
20200;DHT22;36284;37.236;-121.934;2023-06-22T07:47:48;13.90;99.90
20200;DHT22;36284;37.236;-121.934;2023-06-22T07:50:15;13.90;99.90
20200;DHT22;36284;37.236;-121.934;2023-06-22T07:52:42;13.90;99.90
20200;DHT22;36284;37.236;-121.934;2023-06-22T07:55:09;13.90;99.90
20200;DHT22;36284;37.236;-121.934;2023-06-22T07:57:36;13.90;99.90
20200;DHT22;36284;37.236;-121.934;2023-06-22T08:00:04;13.80;99.90
20200;DHT22;36284;37.236;-121.934;2023-06-22T08:02:41;13.80;99.90
20200;DHT22;36284;37.236;-121.934;2023-06-22T08:05:11;13.90;99.90
20200;DHT22;36284;37.236;-121.934;2023-06-22T08:07:39;13.90;99.90
20200;DHT22;36284;37.236;-121.934;2023-06-22T08:10:10;14.00;99.90
20200;DHT22;36284;37.236;-121.934;2023-06-22T08:12:37;14.00;99.90
20200;DHT22;36284;37.236;-121.934;2023-06-22T08:15:04;14.00;99.90
20200;DHT22;36284;37.236;-121.934;2023-06-22T08:17:31;13.90;99.90
20200;DHT22;36284;37.236;-121.934;2023-06-22T08:19:58;13.90;99.90
20200;DHT22;36284;37.236;-121.934;2023-06-22T08:22:25;14.10;99.90
20200;DHT22;36284;37.236;-121.934;2023-06-22T08:24:52;14.00;99.90
20200;DHT22;36284;37.236;-121.934;2023-06-22T08:27:19;14.00;99.90
20200;DHT22;36284;37.236;-121.934;2023-06-22T08:29:47;14.00;99.90
20200;DHT22;36284;37.236;-121.934;2023-06-22T08:32:16;13.90;99.90
20200;DHT22;36284;37.236;-121.934;2023-06-22T08:34:42;13.80;99.90
20200;DHT22;36284;37.236;-121.934;2023-06-22T08:37:10;13.90;99.90
20200;DHT22;36284;37.236;-121.934;2023-06-22T08:39:37;13.90;99.90
20200;DHT22;36284;37.236;-121.934;2023-06-22T08:42:06;13.90;99.90
20200;DHT22;36284;37.236;-121.934;2023-06-22T08:44:33;13.80;99.90
20200;DHT22;36284;37.236;-121.934;2023-06-22T08:46:59;13.80;99.90
20200;DHT22;36284;37.236;-121.934;2023-06-22T08:49:26;13.90;99.90
20200;DHT22;36284;37.236;-121.934;2023-06-22T08:51:53;14.00;99.90
20200;DHT22;36284;37.236;-121.934;2023-06-22T08:54:22;14.00;99.90
20200;DHT22;36284;37.236;-121.934;2023-06-22T08:56:49;14.00;99.90
20200;DHT22;36284;37.236;-121.934;2023-06-22T08:59:16;14.00;99.90
20200;DHT22;36284;37.236;-121.934;2023-06-22T09:01:43;13.90;99.90
20200;DHT22;36284;37.236;-121.934;2023-06-22T09:04:15;13.90;99.90
20200;DHT22;36284;37.236;-121.934;2023-06-22T09:06:42;13.90;99.90
20200;DHT22;36284;37.236;-121.934;2023-06-22T09:09:16;14.00;99.90
20200;DHT22;36284;37.236;-121.934;2023-06-22T09:11:43;14.00;99.90
20200;DHT22;36284;37.236;-121.934;2023-06-22T09:14:10;14.00;99.90
20200;DHT22;36284;37.236;-121.934;2023-06-22T09:16:37;14.00;99.90
20200;DHT22;36284;37.236;-121.934;2023-06-22T09:19:04;14.00;99.90
20200;DHT22;36284;37.236;-121.934;2023-06-22T09:21:31;13.90;99.90
20200;DHT22;36284;37.236;-121.934;2023-06-22T09:23:58;14.00;99.90
20200;DHT22;36284;37.236;-121.934;2023-06-22T09:26:25;14.10;99.90
20200;DHT22;36284;37.236;-121.934;2023-06-22T09:28:52;14.00;99.90
20200;DHT22;36284;37.236;-121.934;2023-06-22T09:31:19;14.00;99.90
20200;DHT22;36284;37.236;-121.934;2023-06-22T09:33:55;14.00;99.90
20200;DHT22;36284;37.236;-121.934;2023-06-22T09:36:22;13.90;99.90
20200;DHT22;36284;37.236;-121.934;2023-06-22T09:38:49;14.00;99.90
20200;DHT22;36284;37.236;-121.934;2023-06-22T09:41:22;14.00;99.90
20200;DHT22;36284;37.236;-121.934;2023-06-22T09:43:49;14.10;99.90
20200;DHT22;36284;37.236;-121.934;2023-06-22T09:46:16;14.00;99.90
20200;DHT22;36284;37.236;-121.934;2023-06-22T09:48:43;14.00;99.90
20200;DHT22;36284;37.236;-121.934;2023-06-22T09:51:12;13.90;99.90
20200;DHT22;36284;37.236;-121.934;2023-06-22T09:53:39;13.80;99.90
20200;DHT22;36284;37.236;-121.934;2023-06-22T09:56:06;14.00;99.90
20200;DHT22;36284;37.236;-121.934;2023-06-22T09:58:32;14.10;99.90
20200;DHT22;36284;37.236;-121.934;2023-06-22T10:00:59;14.20;99.90
20200;DHT22;36284;37.236;-121.934;2023-06-22T10:03:27;14.10;99.90
20200;DHT22;36284;37.236;-121.934;2023-06-22T10:05:54;14.00;99.90
20200;DHT22;36284;37.236;-121.934;2023-06-22T10:08:20;14.20;99.90
20200;DHT22;36284;37.236;-121.934;2023-06-22T10:10:47;14.20;99.90
20200;DHT22;36284;37.236;-121.934;2023-06-22T10:13:14;14.20;99.90
20200;DHT22;36284;37.236;-121.934;2023-06-22T10:15:42;14.10;99.90
20200;DHT22;36284;37.236;-121.934;2023-06-22T10:18:09;14.00;99.90
20200;DHT22;36284;37.236;-121.934;2023-06-22T10:20:36;13.90;99.90
20200;DHT22;36284;37.236;-121.934;2023-06-22T10:23:03;14.00;99.90
20200;DHT22;36284;37.236;-121.934;2023-06-22T10:25:30;13.90;99.90
20200;DHT22;36284;37.236;-121.934;2023-06-22T10:27:56;13.90;99.90
20200;DHT22;36284;37.236;-121.934;2023-06-22T10:30:23;13.90;99.90
20200;DHT22;36284;37.236;-121.934;2023-06-22T10:32:50;13.80;99.90
20200;DHT22;36284;37.236;-121.934;2023-06-22T10:35:17;13.90;99.90
20200;DHT22;36284;37.236;-121.934;2023-06-22T10:37:45;13.80;99.90
20200;DHT22;36284;37.236;-121.934;2023-06-22T10:40:16;13.90;99.90
20200;DHT22;36284;37.236;-121.934;2023-06-22T10:42:45;13.90;99.90
20200;DHT22;36284;37.236;-121.934;2023-06-22T10:45:11;13.90;99.90
20200;DHT22;36284;37.236;-121.934;2023-06-22T10:47:39;13.80;99.90
20200;DHT22;36284;37.236;-121.934;2023-06-22T10:50:08;13.80;99.90
20200;DHT22;36284;37.236;-121.934;2023-06-22T10:52:35;13.80;99.90
20200;DHT22;36284;37.236;-121.934;2023-06-22T10:55:03;13.80;99.90
20200;DHT22;36284;37.236;-121.934;2023-06-22T10:57:30;13.80;99.90
20200;DHT22;36284;37.236;-121.934;2023-06-22T10:59:57;13.90;99.90
20200;DHT22;36284;37.236;-121.934;2023-06-22T11:02:24;13.80;99.90
20200;DHT22;36284;37.236;-121.934;2023-06-22T11:04:51;13.90;99.90
20200;DHT22;36284;37.236;-121.934;2023-06-22T11:07:18;13.90;99.90
20200;DHT22;36284;37.236;-121.934;2023-06-22T11:09:45;13.80;99.90
20200;DHT22;36284;37.236;-121.934;2023-06-22T11:12:12;13.80;99.90
20200;DHT22;36284;37.236;-121.934;2023-06-22T11:14:39;13.90;99.90
20200;DHT22;36284;37.236;-121.934;2023-06-22T11:17:06;13.90;99.90
20200;DHT22;36284;37.236;-121.934;2023-06-22T11:19:33;13.80;99.90
20200;DHT22;36284;37.236;-121.934;2023-06-22T11:22:00;13.70;99.90
20200;DHT22;36284;37.236;-121.934;2023-06-22T11:24:27;13.70;99.90
20200;DHT22;36284;37.236;-121.934;2023-06-22T11:26:54;13.80;99.90
20200;DHT22;36284;37.236;-121.934;2023-06-22T11:29:21;13.80;99.90
20200;DHT22;36284;37.236;-121.934;2023-06-22T11:31:48;13.60;99.90
20200;DHT22;36284;37.236;-121.934;2023-06-22T11:34:15;13.70;99.90
20200;DHT22;36284;37.236;-121.934;2023-06-22T11:36:42;13.60;99.90
20200;DHT22;36284;37.236;-121.934;2023-06-22T11:39:10;13.60;99.90
20200;DHT22;36284;37.236;-121.934;2023-06-22T11:41:38;13.70;99.90
20200;DHT22;36284;37.236;-121.934;2023-06-22T11:44:05;13.70;99.90
20200;DHT22;36284;37.236;-121.934;2023-06-22T11:46:33;13.60;99.90
20200;DHT22;36284;37.236;-121.934;2023-06-22T11:49:01;13.60;99.90
20200;DHT22;36284;37.236;-121.934;2023-06-22T11:51:28;13.60;99.90
20200;DHT22;36284;37.236;-121.934;2023-06-22T11:53:58;13.50;99.90
20200;DHT22;36284;37.236;-121.934;2023-06-22T11:56:25;13.60;99.90
20200;DHT22;36284;37.236;-121.934;2023-06-22T11:58:53;13.40;99.90
20200;DHT22;36284;37.236;-121.934;2023-06-22T12:01:20;13.40;99.90
20200;DHT22;36284;37.236;-121.934;2023-06-22T12:03:48;13.30;99.90
20200;DHT22;36284;37.236;-121.934;2023-06-22T12:06:15;13.20;99.90
20200;DHT22;36284;37.236;-121.934;2023-06-22T12:08:42;13.10;99.90
20200;DHT22;36284;37.236;-121.934;2023-06-22T12:11:08;13.10;99.90
20200;DHT22;36284;37.236;-121.934;2023-06-22T12:13:35;13.10;99.90
20200;DHT22;36284;37.236;-121.934;2023-06-22T12:16:02;13.20;99.90
20200;DHT22;36284;37.236;-121.934;2023-06-22T12:18:29;13.10;99.90
20200;DHT22;36284;37.236;-121.934;2023-06-22T12:20:56;13.10;99.90
20200;DHT22;36284;37.236;-121.934;2023-06-22T12:23:23;13.10;99.90
20200;DHT22;36284;37.236;-121.934;2023-06-22T12:25:50;13.10;99.90
20200;DHT22;36284;37.236;-121.934;2023-06-22T12:28:17;13.10;99.90
20200;DHT22;36284;37.236;-121.934;2023-06-22T12:30:44;13.20;99.90
20200;DHT22;36284;37.236;-121.934;2023-06-22T12:33:11;13.20;99.90
20200;DHT22;36284;37.236;-121.934;2023-06-22T12:35:38;13.20;99.90
20200;DHT22;36284;37.236;-121.934;2023-06-22T12:38:05;13.20;99.90
20200;DHT22;36284;37.236;-121.934;2023-06-22T12:40:33;13.10;99.90
20200;DHT22;36284;37.236;-121.934;2023-06-22T12:43:00;13.10;99.90
20200;DHT22;36284;37.236;-121.934;2023-06-22T12:45:28;13.10;99.90
20200;DHT22;36284;37.236;-121.934;2023-06-22T12:47:58;13.10;99.90
20200;DHT22;36284;37.236;-121.934;2023-06-22T12:50:26;13.20;99.90
20200;DHT22;36284;37.236;-121.934;2023-06-22T12:52:53;13.20;99.90
20200;DHT22;36284;37.236;-121.934;2023-06-22T12:55:20;13.30;99.90
20200;DHT22;36284;37.236;-121.934;2023-06-22T12:57:47;13.30;99.90
20200;DHT22;36284;37.236;-121.934;2023-06-22T13:00:14;13.30;99.90
20200;DHT22;36284;37.236;-121.934;2023-06-22T13:02:41;13.20;99.90
20200;DHT22;36284;37.236;-121.934;2023-06-22T13:05:09;13.20;99.90
20200;DHT22;36284;37.236;-121.934;2023-06-22T13:07:36;13.30;99.90
20200;DHT22;36284;37.236;-121.934;2023-06-22T13:10:03;13.30;99.90
20200;DHT22;36284;37.236;-121.934;2023-06-22T13:12:30;13.30;99.90
20200;DHT22;36284;37.236;-121.934;2023-06-22T13:14:57;13.20;99.90
20200;DHT22;36284;37.236;-121.934;2023-06-22T13:17:24;13.20;99.90
20200;DHT22;36284;37.236;-121.934;2023-06-22T13:19:51;13.30;99.90
20200;DHT22;36284;37.236;-121.934;2023-06-22T13:22:34;13.20;99.90
20200;DHT22;36284;37.236;-121.934;2023-06-22T13:25:09;13.20;99.90
20200;DHT22;36284;37.236;-121.934;2023-06-22T13:27:39;13.20;99.90
20200;DHT22;36284;37.236;-121.934;2023-06-22T13:30:07;13.10;99.90
20200;DHT22;36284;37.236;-121.934;2023-06-22T13:32:35;13.10;99.90
20200;DHT22;36284;37.236;-121.934;2023-06-22T13:35:02;13.10;99.90
20200;DHT22;36284;37.236;-121.934;2023-06-22T13:37:29;13.20;99.90
20200;DHT22;36284;37.236;-121.934;2023-06-22T13:39:56;13.30;99.90
20200;DHT22;36284;37.236;-121.934;2023-06-22T13:42:25;13.40;99.90
20200;DHT22;36284;37.236;-121.934;2023-06-22T13:44:52;13.40;99.90
20200;DHT22;36284;37.236;-121.934;2023-06-22T13:47:19;13.40;99.90
20200;DHT22;36284;37.236;-121.934;2023-06-22T13:49:46;13.30;99.90
20200;DHT22;36284;37.236;-121.934;2023-06-22T13:52:13;13.30;99.90
20200;DHT22;36284;37.236;-121.934;2023-06-22T13:54:40;13.30;99.90
20200;DHT22;36284;37.236;-121.934;2023-06-22T13:57:07;13.20;99.90
20200;DHT22;36284;37.236;-121.934;2023-06-22T13:59:35;13.40;99.90
20200;DHT22;36284;37.236;-121.934;2023-06-22T14:02:02;13.10;99.90
20200;DHT22;36284;37.236;-121.934;2023-06-22T14:04:29;13.20;99.90
20200;DHT22;36284;37.236;-121.934;2023-06-22T14:06:56;13.20;99.90
20200;DHT22;36284;37.236;-121.934;2023-06-22T14:09:23;13.20;99.90
20200;DHT22;36284;37.236;-121.934;2023-06-22T14:11:50;13.20;99.90
20200;DHT22;36284;37.236;-121.934;2023-06-22T14:14:17;13.20;99.90
20200;DHT22;36284;37.236;-121.934;2023-06-22T14:16:44;13.20;99.90
20200;DHT22;36284;37.236;-121.934;2023-06-22T14:19:11;13.20;99.90
20200;DHT22;36284;37.236;-121.934;2023-06-22T14:21:38;13.00;99.90
20200;DHT22;36284;37.236;-121.934;2023-06-22T14:24:05;12.90;99.90
20200;DHT22;36284;37.236;-121.934;2023-06-22T14:26:32;13.00;99.90
20200;DHT22;36284;37.236;-121.934;2023-06-22T14:28:59;12.90;99.90
20200;DHT22;36284;37.236;-121.934;2023-06-22T14:31:26;13.00;99.90
20200;DHT22;36284;37.236;-121.934;2023-06-22T14:33:53;13.20;99.90
20200;DHT22;36284;37.236;-121.934;2023-06-22T14:36:19;13.10;99.90
20200;DHT22;36284;37.236;-121.934;2023-06-22T14:38:46;13.10;99.90
20200;DHT22;36284;37.236;-121.934;2023-06-22T14:41:13;12.90;99.90
20200;DHT22;36284;37.236;-121.934;2023-06-22T14:43:45;13.00;99.90
20200;DHT22;36284;37.236;-121.934;2023-06-22T14:46:17;13.00;99.90
20200;DHT22;36284;37.236;-121.934;2023-06-22T14:48:44;13.00;99.90
20200;DHT22;36284;37.236;-121.934;2023-06-22T14:51:11;13.10;99.90
20200;DHT22;36284;37.236;-121.934;2023-06-22T14:53:39;13.10;99.90
20200;DHT22;36284;37.236;-121.934;2023-06-22T14:56:06;13.20;99.90
20200;DHT22;36284;37.236;-121.934;2023-06-22T14:58:34;13.30;99.90
20200;DHT22;36284;37.236;-121.934;2023-06-22T15:01:05;13.60;99.90
20200;DHT22;36284;37.236;-121.934;2023-06-22T15:03:35;13.70;99.90